createdAt,value
2022-12-25T00:00:56.437Z,99301.03
2022-12-25T00:03:24.064Z,99310.53
2022-12-25T00:05:51.416Z,99317.56
2022-12-25T00:08:18.979Z,99324.13
2022-12-25T00:10:46.228Z,99328.59
2022-12-25T00:13:13.460Z,99333.06
2022-12-25T00:15:42.249Z,99330.34
2022-12-25T00:18:09.757Z,99338.69
2022-12-25T00:20:37.048Z,99344.03
2022-12-25T00:23:04.216Z,99347.44
2022-12-25T00:25:31.658Z,99342.00
2022-12-25T00:27:59.047Z,99364.22
2022-12-25T00:30:26.464Z,99357.75
2022-12-25T00:32:55.092Z,99358.75
2022-12-25T00:35:22.458Z,99368.81
2022-12-25T00:37:49.692Z,99365.31
2022-12-25T00:40:17.073Z,99364.78
2022-12-25T00:42:44.471Z,99367.69
2022-12-25T00:45:11.828Z,99369.66
2022-12-25T00:47:39.062Z,99368.78
2022-12-25T00:50:09.866Z,99378.19
2022-12-25T00:52:37.559Z,99382.13
2022-12-25T00:55:05.476Z,99391.41
2022-12-25T00:57:34.003Z,99384.03
2022-12-25T01:00:01.248Z,99400.66
2022-12-25T01:02:31.063Z,99391.75
2022-12-25T01:04:58.375Z,99398.63
2022-12-25T01:07:27.847Z,99400.25
2022-12-25T01:10:14.050Z,99412.28
2022-12-25T01:12:42.152Z,99414.44
2022-12-25T01:15:12.244Z,99408.84
2022-12-25T01:17:40.279Z,99419.72
2022-12-25T01:20:08.660Z,99414.59
2022-12-25T01:22:37.763Z,99423.13
2022-12-25T01:25:06.111Z,99419.25
2022-12-25T01:27:33.698Z,99416.66
2022-12-25T01:30:01.432Z,99415.25
2022-12-25T01:32:30.913Z,99431.06
2022-12-25T01:34:58.540Z,99433.69
2022-12-25T01:37:25.960Z,99427.41
2022-12-25T01:39:54.626Z,99444.50
2022-12-25T01:42:23.916Z,99430.66
2022-12-25T01:45:38.446Z,99456.28
2022-12-25T01:48:11.814Z,99451.66
2022-12-25T01:50:43.337Z,99463.34
2022-12-25T01:53:10.914Z,99452.03
2022-12-25T01:55:41.060Z,99463.00
2022-12-25T01:58:08.451Z,99463.00
2022-12-25T02:00:36.347Z,99453.22
2022-12-25T02:03:04.965Z,99457.34
2022-12-25T02:05:33.963Z,99468.94
2022-12-25T02:08:07.922Z,99444.75
2022-12-25T02:10:35.127Z,99475.41
2022-12-25T02:13:04.053Z,99475.06
2022-12-25T02:15:57.773Z,99453.84
2022-12-25T02:18:42.420Z,99457.59
2022-12-25T02:21:23.308Z,99473.53
2022-12-25T02:24:09.216Z,99492.50
2022-12-25T02:26:55.655Z,99492.22
2022-12-25T02:29:30.768Z,99500.41
2022-12-25T02:32:02.661Z,99507.06
2022-12-25T02:34:36.444Z,99510.72
2022-12-25T02:37:09.103Z,99512.31
2022-12-25T02:39:59.935Z,99509.31
2022-12-25T02:42:54.484Z,99504.47
2022-12-25T02:45:47.386Z,99524.38
2022-12-25T02:48:33.928Z,99536.06
2022-12-25T02:51:23.678Z,99525.38
2022-12-25T02:54:13.028Z,99531.22
2022-12-25T02:57:00.781Z,99533.47
2022-12-25T02:59:50.394Z,99523.94
2022-12-25T03:02:38.990Z,99544.91
2022-12-25T03:05:29.944Z,99554.06
2022-12-25T03:08:01.063Z,99547.75
2022-12-25T03:10:48.694Z,99555.34
2022-12-25T03:13:19.988Z,99548.31
2022-12-25T03:16:06.949Z,99554.41
2022-12-25T03:18:36.220Z,99558.28
2022-12-25T03:21:22.542Z,99572.94
2022-12-25T03:24:11.596Z,99568.81
2022-12-25T03:26:57.568Z,99580.31
2022-12-25T03:29:45.161Z,99574.31
2022-12-25T03:32:22.825Z,99571.28
2022-12-25T03:35:20.471Z,99580.94
2022-12-25T03:38:29.621Z,99567.34
2022-12-25T03:41:26.165Z,99592.13
2022-12-25T03:44:17.687Z,99592.44
2022-12-25T03:47:09.709Z,99590.97
2022-12-25T03:50:03.962Z,99589.66
2022-12-25T03:52:53.396Z,99575.88
2022-12-25T03:55:41.920Z,99611.19
2022-12-25T03:58:41.358Z,99606.38
2022-12-25T04:01:27.355Z,99595.53
2022-12-25T04:04:13.474Z,99615.31
2022-12-25T04:07:00.147Z,99617.50
2022-12-25T04:09:47.284Z,99616.47
2022-12-25T04:12:33.182Z,99626.63
2022-12-25T04:15:19.233Z,99632.34
2022-12-25T04:18:05.154Z,99630.50
2022-12-25T04:20:50.794Z,99644.16
2022-12-25T04:23:37.079Z,99638.59
2022-12-25T04:26:24.650Z,99639.34
2022-12-25T04:29:10.790Z,99648.13
2022-12-25T04:31:56.556Z,99655.53
2022-12-25T04:34:42.517Z,99653.31
2022-12-25T04:37:09.837Z,99662.16
2022-12-25T04:39:37.049Z,99668.81
2022-12-25T04:42:05.866Z,99657.13
2022-12-25T04:44:34.139Z,99649.69
2022-12-25T04:47:04.587Z,99663.06
2022-12-25T04:49:36.719Z,99660.97
2022-12-25T04:52:04.259Z,99663.59
2022-12-25T04:54:31.651Z,99659.44
2022-12-25T04:56:58.947Z,99677.38
2022-12-25T04:59:27.599Z,99663.06
2022-12-25T05:01:54.930Z,99691.72
2022-12-25T05:04:22.520Z,99693.56
2022-12-25T05:06:49.901Z,99695.72
2022-12-25T05:09:17.056Z,99702.66
2022-12-25T05:11:44.328Z,99701.69
2022-12-25T05:14:11.584Z,99716.84
2022-12-25T05:16:40.473Z,99716.91
2022-12-25T05:19:07.978Z,99722.47
2022-12-25T05:21:35.699Z,99727.75
2022-12-25T05:24:03.041Z,99739.09
2022-12-25T05:26:30.391Z,99732.31
2022-12-25T05:28:59.240Z,99744.00
2022-12-25T05:31:26.590Z,99740.94
2022-12-25T05:33:55.270Z,99739.97
2022-12-25T05:36:22.574Z,99753.94
2022-12-25T05:38:50.703Z,99759.38
2022-12-25T05:41:18.012Z,99763.13
2022-12-25T05:43:45.302Z,99767.69
2022-12-25T05:46:13.896Z,99765.44
2022-12-25T05:48:41.436Z,99774.44
2022-12-25T05:51:11.894Z,99767.75
2022-12-25T05:53:40.007Z,99768.63
2022-12-25T05:56:08.956Z,99778.53
2022-12-25T05:58:40.749Z,99792.78
2022-12-25T06:01:12.011Z,99783.56
2022-12-25T06:03:39.497Z,99789.38
2022-12-25T06:06:07.461Z,99799.16
2022-12-25T06:08:36.400Z,99800.09
2022-12-25T06:11:04.882Z,99792.63
2022-12-25T06:13:32.700Z,99796.41
2022-12-25T06:16:00.087Z,99807.34
2022-12-25T06:18:27.428Z,99806.00
2022-12-25T06:20:54.768Z,99803.47
2022-12-25T06:23:22.101Z,99808.97
2022-12-25T06:25:50.912Z,99815.19
2022-12-25T06:28:18.451Z,99818.81
2022-12-25T06:30:45.781Z,99823.91
2022-12-25T06:33:13.387Z,99817.59
2022-12-25T06:35:40.793Z,99834.88
2022-12-25T06:38:08.183Z,99831.66
2022-12-25T06:40:35.591Z,99827.34
2022-12-25T06:43:04.245Z,99826.47
2022-12-25T06:45:31.601Z,99827.44
2022-12-25T06:51:04.430Z,99836.75
2022-12-25T06:53:38.787Z,99828.16
2022-12-25T06:56:09.433Z,99829.91
2022-12-25T06:58:38.039Z,99838.31
2022-12-25T07:01:15.298Z,99839.50
2022-12-25T07:03:45.516Z,99845.06
2022-12-25T07:06:13.061Z,99846.56
2022-12-25T07:08:40.519Z,99849.50
2022-12-25T07:11:08.974Z,99842.56
2022-12-25T07:13:37.929Z,99849.03
2022-12-25T07:16:07.819Z,99851.03
2022-12-25T07:18:35.613Z,99850.59
2022-12-25T07:21:06.661Z,99846.41
2022-12-25T07:23:34.223Z,99851.69
2022-12-25T07:26:02.121Z,99843.13
2022-12-25T07:28:30.856Z,99858.34
2022-12-25T07:31:03.416Z,99855.50
2022-12-25T07:33:31.373Z,99869.09
2022-12-25T07:35:58.882Z,99874.94
2022-12-25T07:38:26.520Z,99888.63
2022-12-25T07:40:54.136Z,99883.75
2022-12-25T07:43:21.608Z,99889.44
2022-12-25T07:45:48.976Z,99889.94
2022-12-25T07:48:17.782Z,99893.13
2022-12-25T07:50:45.213Z,99907.91
2022-12-25T07:53:12.672Z,99905.88
2022-12-25T07:55:40.047Z,99918.34
2022-12-25T07:58:07.365Z,99910.22
2022-12-25T08:00:34.776Z,99909.56
2022-12-25T08:03:02.092Z,99910.06
2022-12-25T08:05:32.950Z,99905.66
2022-12-25T08:08:00.363Z,99907.28
2022-12-25T08:10:27.673Z,99905.31
2022-12-25T08:12:56.287Z,99907.41
2022-12-25T08:15:23.763Z,99922.75
2022-12-25T08:17:51.018Z,99931.44
2022-12-25T08:20:18.494Z,99936.41
2022-12-25T08:22:47.575Z,99945.31
2022-12-25T08:25:16.084Z,99950.84
2022-12-25T08:27:43.451Z,99944.00
2022-12-25T08:30:11.517Z,99938.84
2022-12-25T08:32:38.905Z,99943.72
2022-12-25T08:35:07.448Z,99961.19
2022-12-25T08:37:34.857Z,99966.25
2022-12-25T08:40:04.148Z,99956.16
2022-12-25T08:42:31.668Z,99961.09
2022-12-25T08:44:59.207Z,99957.09
2022-12-25T08:47:27.712Z,99949.56
2022-12-25T08:49:55.285Z,99962.81
2022-12-25T08:52:22.861Z,99961.78
2022-12-25T08:54:50.493Z,99958.28
2022-12-25T08:57:19.327Z,99961.03
2022-12-25T08:59:46.619Z,99965.69
2022-12-25T09:02:14.054Z,99974.19
2022-12-25T09:04:41.435Z,99980.44
2022-12-25T09:07:08.795Z,99975.31
2022-12-25T09:09:36.042Z,99981.56
2022-12-25T09:12:03.416Z,99976.31
2022-12-25T09:14:32.341Z,99985.75
2022-12-25T09:16:59.753Z,99981.94
2022-12-25T09:19:30.970Z,99988.84
2022-12-25T09:22:06.632Z,99991.53
2022-12-25T09:24:33.980Z,99993.75
2022-12-25T09:27:01.537Z,100000.00
2022-12-25T09:29:28.791Z,99995.00
2022-12-25T09:31:57.427Z,99996.88
2022-12-25T09:34:25.037Z,99992.91
2022-12-25T09:36:52.242Z,99997.91
2022-12-25T09:39:21.642Z,100007.53
2022-12-25T09:41:56.711Z,100012.44
2022-12-25T09:44:28.586Z,100003.88
2022-12-25T09:47:01.792Z,100007.66
2022-12-25T09:49:38.325Z,100008.28
2022-12-25T09:52:10.601Z,100015.19
2022-12-25T09:54:45.117Z,100009.94
2022-12-25T09:57:22.970Z,100015.28
2022-12-25T09:59:54.177Z,100019.75
2022-12-25T10:02:58.548Z,100022.56
2022-12-25T10:05:58.581Z,100032.69
2022-12-25T10:08:43.535Z,100022.75
2022-12-25T10:11:22.186Z,100033.31
2022-12-25T10:14:02.406Z,100028.84
2022-12-25T10:16:39.076Z,100027.66
2022-12-25T10:19:27.151Z,100032.56
2022-12-25T10:21:58.731Z,100027.81
2022-12-25T10:24:33.369Z,100032.84
2022-12-25T10:27:02.762Z,100044.22
2022-12-25T10:29:32.393Z,100048.41
2022-12-25T10:31:59.758Z,100053.59
2022-12-25T10:34:29.049Z,100062.19
2022-12-25T10:36:56.652Z,100049.28
2022-12-25T10:39:25.879Z,100048.91
2022-12-25T10:42:10.586Z,100058.50
2022-12-25T10:44:38.221Z,100053.25
2022-12-25T10:47:06.016Z,100063.47
2022-12-25T10:49:37.947Z,100051.50
2022-12-25T10:52:19.757Z,100044.66
2022-12-25T10:54:47.079Z,100055.31
2022-12-25T10:57:16.448Z,100058.56
2022-12-25T10:59:45.442Z,100054.78
2022-12-25T11:02:20.255Z,100059.06
2022-12-25T11:04:50.009Z,100061.25
2022-12-25T11:07:25.352Z,100053.97
2022-12-25T11:09:57.806Z,100069.34
2022-12-25T11:12:32.984Z,100070.72
2022-12-25T11:15:04.581Z,100076.91
2022-12-25T11:17:32.041Z,100074.53
2022-12-25T11:20:01.738Z,100078.31
2022-12-25T11:22:30.407Z,100075.44
2022-12-25T11:24:57.789Z,100071.19
2022-12-25T11:27:28.083Z,100070.88
2022-12-25T11:29:59.447Z,100064.72
2022-12-25T11:32:31.582Z,100063.88
2022-12-25T11:35:02.952Z,100063.22
2022-12-25T11:37:38.186Z,100056.88
2022-12-25T11:40:07.321Z,100068.50
2022-12-25T11:42:37.783Z,100078.09
2022-12-25T11:45:12.044Z,100091.72
2022-12-25T11:47:44.337Z,100076.91
2022-12-25T11:50:23.746Z,100078.78
2022-12-25T11:52:52.896Z,100085.97
2022-12-25T11:55:24.144Z,100096.97
2022-12-25T11:57:55.438Z,100099.53
2022-12-25T12:00:23.681Z,100096.97
2022-12-25T12:02:58.937Z,100097.59
2022-12-25T12:05:35.593Z,100099.72
2022-12-25T12:08:06.212Z,100106.88
2022-12-25T12:10:43.140Z,100115.66
2022-12-25T12:13:26.487Z,100113.34
2022-12-25T12:15:54.417Z,100127.13
2022-12-25T12:18:28.659Z,100125.03
2022-12-25T12:21:07.241Z,100129.69
2022-12-25T12:23:47.043Z,100124.03
2022-12-25T12:26:20.287Z,100114.06
2022-12-25T12:28:49.453Z,100119.53
2022-12-25T12:31:17.536Z,100118.59
2022-12-25T12:33:55.447Z,100133.75
2022-12-25T12:36:35.630Z,100129.09
2022-12-25T12:39:06.095Z,100137.03
2022-12-25T12:41:44.994Z,100140.31
2022-12-25T12:44:13.697Z,100144.91
2022-12-25T12:46:51.982Z,100130.25
2022-12-25T12:49:23.173Z,100147.03
2022-12-25T12:52:03.857Z,100153.09
2022-12-25T12:54:31.217Z,100139.59
2022-12-25T12:57:00.877Z,100145.59
2022-12-25T12:59:37.159Z,100149.13
2022-12-25T13:02:21.853Z,100149.13
2022-12-25T13:04:58.610Z,100147.88
2022-12-25T13:07:45.211Z,100156.41
2022-12-25T13:10:25.739Z,100163.63
2022-12-25T13:12:55.376Z,100166.38
2022-12-25T13:15:25.475Z,100170.28
2022-12-25T13:17:53.006Z,100165.50
2022-12-25T13:20:28.922Z,100158.94
2022-12-25T13:22:57.654Z,100173.75
2022-12-25T13:25:25.061Z,100168.88
2022-12-25T13:27:56.635Z,100174.81
2022-12-25T13:30:25.141Z,100170.38
2022-12-25T13:32:52.834Z,100174.94
2022-12-25T13:35:23.266Z,100170.56
2022-12-25T13:37:51.227Z,100182.56
2022-12-25T13:40:24.879Z,100184.03
2022-12-25T13:42:58.887Z,100182.28
2022-12-25T13:45:28.849Z,100180.78
2022-12-25T13:47:56.542Z,100177.13
2022-12-25T13:50:27.079Z,100171.28
2022-12-25T13:52:55.647Z,100189.25
2022-12-25T13:55:26.158Z,100202.22
2022-12-25T13:57:58.000Z,100196.53
2022-12-25T14:00:38.137Z,100200.66
2022-12-25T14:03:10.115Z,100203.03
2022-12-25T14:05:42.643Z,100201.59
2022-12-25T14:08:15.111Z,100205.97
2022-12-25T14:10:48.478Z,100201.22
2022-12-25T14:13:16.917Z,100196.19
2022-12-25T14:15:46.418Z,100206.38
2022-12-25T14:18:15.631Z,100211.34
2022-12-25T14:20:57.230Z,100208.19
2022-12-25T14:23:24.954Z,100208.72
2022-12-25T14:25:53.655Z,100215.06
2022-12-25T14:28:25.640Z,100217.22
2022-12-25T14:30:53.546Z,100220.78
2022-12-25T14:33:23.636Z,100220.34
2022-12-25T14:35:52.394Z,100233.69
2022-12-25T14:38:24.340Z,100228.47
2022-12-25T14:41:04.414Z,100236.25
2022-12-25T14:43:33.108Z,100245.97
2022-12-25T14:46:03.167Z,100233.09
2022-12-25T14:48:32.304Z,100230.88
2022-12-25T14:51:03.492Z,100219.50
2022-12-25T14:53:36.392Z,100206.28
2022-12-25T14:56:05.213Z,100224.31
2022-12-25T14:58:40.504Z,100226.28
2022-12-25T15:01:08.202Z,100227.09
2022-12-25T15:03:37.192Z,100228.72
2022-12-25T15:06:07.309Z,100224.44
2022-12-25T15:08:35.816Z,100233.16
2022-12-25T15:11:04.675Z,100238.81
2022-12-25T15:13:32.602Z,100235.63
2022-12-25T15:16:04.917Z,100224.00
2022-12-25T15:18:38.612Z,100225.34
2022-12-25T15:21:07.251Z,100227.97
2022-12-25T15:23:34.754Z,100225.72
2022-12-25T15:26:02.065Z,100232.81
2022-12-25T15:28:30.719Z,100236.44
2022-12-25T15:30:58.061Z,100247.41
2022-12-25T15:33:25.363Z,100244.94
2022-12-25T15:35:52.600Z,100242.00
2022-12-25T15:38:19.971Z,100249.13
2022-12-25T15:40:47.739Z,100250.25
2022-12-25T15:43:39.388Z,100252.59
2022-12-25T15:46:04.434Z,100258.16
2022-12-25T15:48:31.822Z,100260.22
2022-12-25T15:50:59.157Z,100263.16
2022-12-25T15:53:27.101Z,100260.34
2022-12-25T15:55:54.547Z,100263.97
2022-12-25T15:58:22.046Z,100262.63
2022-12-25T16:00:50.447Z,100267.97
2022-12-25T16:03:19.138Z,100273.09
2022-12-25T16:05:46.441Z,100277.38
2022-12-25T16:08:13.685Z,100278.16
2022-12-25T16:10:41.070Z,100273.31
2022-12-25T16:13:08.618Z,100277.47
2022-12-25T16:15:36.052Z,100288.34
2022-12-25T16:18:03.695Z,100277.84
2022-12-25T16:20:32.728Z,100277.91
2022-12-25T16:23:00.331Z,100286.09
2022-12-25T16:25:27.777Z,100293.22
2022-12-25T16:27:55.098Z,100278.53
2022-12-25T16:30:22.607Z,100279.78
2022-12-25T16:32:50.723Z,100287.16
2022-12-25T16:35:18.345Z,100282.06
2022-12-25T16:37:47.137Z,100288.72
2022-12-25T16:40:14.565Z,100293.91
2022-12-25T16:42:41.869Z,100296.75
2022-12-25T16:45:10.669Z,100303.16
2022-12-25T16:47:37.992Z,100306.69
2022-12-25T16:50:06.779Z,100298.38
2022-12-25T16:52:34.859Z,100310.72
2022-12-25T16:55:05.049Z,100302.31
2022-12-25T16:57:32.777Z,100305.88
2022-12-25T17:00:00.294Z,100303.41
2022-12-25T17:02:27.912Z,100311.03
2022-12-25T17:04:55.462Z,100311.94
2022-12-25T17:07:22.916Z,100307.72
2022-12-25T17:09:50.413Z,100315.84
2022-12-25T17:12:19.266Z,100304.94
2022-12-25T17:14:46.497Z,100304.06
2022-12-25T17:17:14.190Z,100304.22
2022-12-25T17:19:41.866Z,100310.75
2022-12-25T17:22:09.222Z,100307.22
2022-12-25T17:24:37.496Z,100313.19
2022-12-25T17:27:08.684Z,100325.25
2022-12-25T17:29:41.235Z,100333.91
2022-12-25T17:32:09.138Z,100329.28
2022-12-25T17:34:36.797Z,100335.09
2022-12-25T17:37:04.136Z,100335.13
2022-12-25T17:39:31.511Z,100336.31
2022-12-25T17:41:59.116Z,100335.06
2022-12-25T17:44:27.460Z,100336.22
2022-12-25T17:46:56.302Z,100335.31
2022-12-25T17:49:23.755Z,100336.47
2022-12-25T17:51:51.268Z,100333.56
2022-12-25T17:54:18.759Z,100327.84
2022-12-25T17:56:46.260Z,100344.06
2022-12-25T17:59:18.767Z,100348.25
2022-12-25T18:01:48.304Z,100347.69
2022-12-25T18:04:17.297Z,100348.94
2022-12-25T18:06:44.689Z,100347.78
2022-12-25T18:09:12.844Z,100356.84
2022-12-25T18:11:42.461Z,100348.91
2022-12-25T18:14:13.461Z,100350.34
2022-12-25T18:16:43.481Z,100344.78
2022-12-25T18:19:12.012Z,100341.34
2022-12-25T18:21:41.200Z,100335.50
2022-12-25T18:24:09.175Z,100341.34
2022-12-25T18:26:37.164Z,100344.81
2022-12-25T18:29:05.323Z,100346.56
2022-12-25T18:31:33.547Z,100356.38
2022-12-25T18:34:00.989Z,100360.41
2022-12-25T18:36:29.412Z,100366.22
2022-12-25T18:38:58.895Z,100368.56
2022-12-25T18:41:28.253Z,100363.03
2022-12-25T18:43:56.193Z,100367.94
2022-12-25T18:46:25.289Z,100369.63
2022-12-25T18:48:53.449Z,100371.44
2022-12-25T18:51:20.766Z,100376.34
2022-12-25T18:53:48.209Z,100383.09
2022-12-25T18:56:18.185Z,100388.50
2022-12-25T18:58:46.368Z,100385.53
2022-12-25T19:01:16.409Z,100382.97
2022-12-25T19:03:44.486Z,100384.72
2022-12-25T19:06:17.465Z,100390.56
2022-12-25T19:08:44.572Z,100391.88
2022-12-25T19:11:11.917Z,100392.53
2022-12-25T19:13:40.622Z,100383.69
2022-12-25T19:16:08.331Z,100396.59
2022-12-25T19:18:35.839Z,100389.97
2022-12-25T19:21:03.499Z,100390.56
2022-12-25T19:23:31.367Z,100398.75
2022-12-25T19:25:58.664Z,100394.25
2022-12-25T19:28:26.277Z,100396.34
2022-12-25T19:30:55.517Z,100399.59
2022-12-25T19:33:22.973Z,100404.41
2022-12-25T19:35:50.520Z,100392.47
2022-12-25T19:38:20.342Z,100409.53
2022-12-25T19:41:00.718Z,100408.75
2022-12-25T19:43:32.220Z,100414.00
2022-12-25T19:46:01.965Z,100414.88
2022-12-25T19:48:30.581Z,100421.97
2022-12-25T19:50:58.400Z,100418.31
2022-12-25T19:53:26.191Z,100421.75
2022-12-25T19:55:54.748Z,100409.03
2022-12-25T19:58:23.620Z,100420.63
2022-12-25T20:00:57.826Z,100423.19
2022-12-25T20:03:27.183Z,100422.41
2022-12-25T20:05:54.785Z,100431.78
2022-12-25T20:08:22.261Z,100425.41
2022-12-25T20:10:50.065Z,100436.38
2022-12-25T20:13:17.935Z,100419.75
2022-12-25T20:15:45.631Z,100421.56
2022-12-25T20:18:13.796Z,100423.41
2022-12-25T20:20:45.296Z,100425.22
2022-12-25T20:23:12.591Z,100425.00
2022-12-25T20:25:40.585Z,100426.59
2022-12-25T20:28:07.883Z,100426.78
2022-12-25T20:30:39.088Z,100431.88
2022-12-25T20:33:06.455Z,100428.47
2022-12-25T20:35:34.645Z,100419.50
2022-12-25T20:38:03.403Z,100417.50
2022-12-25T20:40:34.630Z,100417.72
2022-12-25T20:43:09.029Z,100430.56
2022-12-25T20:45:40.539Z,100433.94
2022-12-25T20:48:07.972Z,100438.34
2022-12-25T20:50:35.183Z,100435.78
2022-12-25T20:53:03.971Z,100436.09
2022-12-25T20:55:31.295Z,100443.28
2022-12-25T20:57:58.669Z,100447.97
2022-12-25T21:00:26.056Z,100439.41
2022-12-25T21:02:53.641Z,100438.31
2022-12-25T21:05:20.976Z,100436.47
2022-12-25T21:07:48.257Z,100436.81
2022-12-25T21:10:17.103Z,100448.09
2022-12-25T21:12:44.381Z,100454.22
2022-12-25T21:15:15.590Z,100454.94
2022-12-25T21:17:43.405Z,100459.66
2022-12-25T21:20:11.401Z,100456.84
2022-12-25T21:22:38.745Z,100454.13
2022-12-25T21:25:06.419Z,100451.47
2022-12-25T21:27:35.295Z,100447.28
2022-12-25T21:30:14.942Z,100455.84
2022-12-25T21:33:01.842Z,100452.19
2022-12-25T21:35:30.784Z,100454.84
2022-12-25T21:37:58.362Z,100456.47
2022-12-25T21:40:25.600Z,100457.97
2022-12-25T21:42:54.386Z,100461.31
2022-12-25T21:45:21.811Z,100462.72
2022-12-25T21:48:02.115Z,100462.72
2022-12-25T21:50:48.809Z,100462.00
2022-12-25T21:53:17.846Z,100459.09
2022-12-25T21:55:56.001Z,100457.75
2022-12-25T21:58:25.069Z,100462.34
2022-12-25T22:00:52.573Z,100460.16
2022-12-25T22:03:20.022Z,100463.97
2022-12-25T22:06:06.233Z,100463.66
2022-12-25T22:08:33.804Z,100461.06
2022-12-25T22:11:03.492Z,100453.81
2022-12-25T22:13:50.642Z,100462.81
2022-12-25T22:16:36.549Z,100468.56
2022-12-25T22:19:22.591Z,100457.66
2022-12-25T22:21:49.903Z,100467.06
2022-12-25T22:24:18.536Z,100470.59
2022-12-25T22:26:46.204Z,100467.50
2022-12-25T22:29:15.001Z,100470.00
2022-12-25T22:31:46.628Z,100464.88
2022-12-25T22:34:16.197Z,100461.38
2022-12-25T22:36:43.805Z,100460.69
2022-12-25T22:39:11.863Z,100465.16
2022-12-25T22:41:39.087Z,100457.63
2022-12-25T22:44:17.194Z,100461.00
2022-12-25T22:46:46.721Z,100459.53
2022-12-25T22:49:16.093Z,100468.00
2022-12-25T22:51:43.621Z,100476.25
2022-12-25T22:54:13.372Z,100473.41
2022-12-25T22:56:40.695Z,100476.50
2022-12-25T22:59:08.236Z,100470.34
2022-12-25T23:01:36.130Z,100478.25
2022-12-25T23:04:06.059Z,100477.84
2022-12-25T23:06:33.687Z,100474.06
2022-12-25T23:09:01.908Z,100486.03
2022-12-25T23:11:29.168Z,100491.72
2022-12-25T23:14:15.172Z,100498.78
2022-12-25T23:16:43.212Z,100494.81
2022-12-25T23:19:32.056Z,100492.44
2022-12-25T23:22:28.263Z,100495.59
2022-12-25T23:25:16.164Z,100501.88
2022-12-25T23:27:43.855Z,100492.00
2022-12-25T23:30:12.638Z,100495.09
2022-12-25T23:32:40.609Z,100499.91
2022-12-25T23:35:10.532Z,100504.34
2022-12-25T23:37:37.962Z,100512.81
2022-12-25T23:40:06.408Z,100502.09
2022-12-25T23:42:33.950Z,100511.31
2022-12-25T23:45:01.340Z,100504.78
2022-12-25T23:47:31.095Z,100520.63
2022-12-25T23:49:58.309Z,100514.63
2022-12-25T23:52:27.273Z,100520.06
2022-12-25T23:54:54.531Z,100518.06
2022-12-25T23:57:21.870Z,100527.78
2022-12-25T23:59:49.169Z,100522.84
